Time;durP1;ratioP1;P1;durP2;ratioP2;P2;SDS_P1;SDS_P2;PMS_P1;PMS_P2;Temp;Humidity;BMP_temperature;BMP_pressure;BME280_temperature;BME280_humidity;BME280_pressure;Samples;Min_cycle;Max_cycle;Signal;HPM_P1;HPM_P2
2022/11/01 00:01:52;;;;;;;14.13;10.23;;;10.30;99.90;;;;;;5086786;28;20048;-75
2022/11/01 00:04:20;;;;;;;10.55;8.13;;;10.40;99.90;;;;;;5086643;28;20116;-68
2022/11/01 00:06:48;;;;;;;12.25;8.48;;;10.30;99.90;;;;;;5080100;28;20536;-66
2022/11/01 00:09:15;;;;;;;12.52;8.30;;;10.40;99.90;;;;;;5079752;28;20050;-67
2022/11/01 00:11:42;;;;;;;12.15;9.57;;;10.30;99.90;;;;;;5078828;28;20564;-66
2022/11/01 00:14:14;;;;;;;16.92;9.52;;;10.30;99.90;;;;;;5077261;28;21660;-65
2022/11/01 00:16:41;;;;;;;19.95;11.27;;;10.30;99.90;;;;;;5085019;28;20096;-69
2022/11/01 00:19:08;;;;;;;11.80;9.05;;;10.30;99.90;;;;;;5078560;28;20458;-72
2022/11/01 00:21:35;;;;;;;17.63;9.35;;;10.30;99.90;;;;;;5086652;28;20378;-68
2022/11/01 00:24:02;;;;;;;17.67;10.75;;;10.30;99.90;;;;;;5079952;28;20202;-70
2022/11/01 00:26:29;;;;;;;31.02;9.90;;;10.30;99.90;;;;;;5081080;28;20121;-70
2022/11/01 00:28:56;;;;;;;27.60;9.95;;;10.40;99.90;;;;;;5082581;28;20052;-76
2022/11/01 00:31:23;;;;;;;15.60;8.38;;;10.40;99.90;;;;;;5084323;28;20050;-74
2022/11/01 00:33:50;;;;;;;21.75;10.85;;;10.30;99.90;;;;;;5084618;28;20374;-66
2022/11/01 00:36:17;;;;;;;23.42;8.85;;;10.30;99.90;;;;;;5081634;28;20049;-70
2022/11/01 00:38:48;;;;;;;12.90;8.13;;;10.30;99.90;;;;;;5084455;28;20674;-67
2022/11/01 00:41:15;;;;;;;26.08;8.48;;;10.30;99.90;;;;;;5074970;28;20138;-67
2022/11/01 00:43:42;;;;;;;16.33;7.32;;;10.30;99.90;;;;;;5074623;28;20047;-71
2022/11/01 00:46:09;;;;;;;27.77;7.95;;;10.30;99.90;;;;;;5086606;28;20040;-77
2022/11/01 00:48:36;;;;;;;28.77;8.63;;;10.30;99.90;;;;;;5075666;28;20050;-64
2022/11/01 00:51:03;;;;;;;10.63;6.82;;;10.30;99.90;;;;;;5068529;28;20072;-65
2022/11/01 00:53:30;;;;;;;20.42;6.80;;;10.20;99.90;;;;;;5063869;28;20093;-68
2022/11/01 00:56:04;;;;;;;10.48;6.93;;;10.20;99.90;;;;;;5085771;28;20040;-73
2022/11/01 00:58:31;;;;;;;9.25;5.45;;;10.20;99.90;;;;;;5084362;28;20052;-65
2022/11/01 01:00:58;;;;;;;17.35;7.03;;;10.20;99.90;;;;;;5083668;28;20056;-70
2022/11/01 01:03:26;;;;;;;9.15;5.25;;;10.20;99.90;;;;;;5083178;28;20378;-68
2022/11/01 01:05:53;;;;;;;15.98;6.70;;;10.20;99.90;;;;;;5080424;28;20109;-67
2022/11/01 01:08:21;;;;;;;15.55;6.65;;;10.20;99.90;;;;;;5087933;28;20044;-64
2022/11/01 01:10:48;;;;;;;16.80;7.68;;;10.20;99.90;;;;;;5090260;28;20044;-64
2022/11/01 01:13:15;;;;;;;14.90;6.03;;;10.20;99.90;;;;;;5088788;28;20497;-68
2022/11/01 01:15:42;;;;;;;10.55;6.50;;;10.20;99.90;;;;;;5070385;28;20123;-66
2022/11/01 01:18:10;;;;;;;16.67;7.05;;;10.20;99.90;;;;;;5091344;28;20054;-67
2022/11/01 01:20:37;;;;;;;14.43;6.07;;;10.20;99.90;;;;;;5086645;28;20065;-68
2022/11/01 01:23:04;;;;;;;14.70;7.38;;;10.20;99.90;;;;;;5083425;28;20056;-68
2022/11/01 01:25:31;;;;;;;10.82;6.72;;;10.20;99.90;;;;;;5082766;28;20056;-70
2022/11/01 01:27:58;;;;;;;10.02;7.35;;;10.20;99.90;;;;;;5085969;28;20130;-70
2022/11/01 01:30:25;;;;;;;12.48;7.07;;;10.20;99.90;;;;;;5086794;28;20044;-68
2022/11/01 01:32:52;;;;;;;7.95;5.80;;;10.10;99.90;;;;;;5090339;28;20054;-64
2022/11/01 01:35:19;;;;;;;14.30;6.53;;;10.10;99.90;;;;;;5086709;28;20044;-66
2022/11/01 01:37:46;;;;;;;8.93;5.15;;;10.10;99.90;;;;;;5082649;28;20122;-68
2022/11/01 01:40:13;;;;;;;7.70;5.10;;;10.10;99.90;;;;;;5081145;28;20055;-66
2022/11/01 01:42:42;;;;;;;11.63;7.00;;;10.10;99.90;;;;;;5092073;28;20047;-69
2022/11/01 01:45:31;;;;;;;7.53;5.20;;;10.10;99.90;;;;;;5086166;28;20058;-66
2022/11/01 01:48:07;;;;;;;8.10;5.78;;;10.10;99.90;;;;;;5082464;28;20055;-68
2022/11/01 01:50:53;;;;;;;8.43;6.10;;;10.00;99.90;;;;;;5083679;28;20433;-65
2022/11/01 01:53:26;;;;;;;7.60;5.57;;;10.00;99.90;;;;;;5084220;28;20437;-70
2022/11/01 01:55:56;;;;;;;9.27;5.97;;;10.00;99.90;;;;;;5081044;28;21199;-70
2022/11/01 01:58:29;;;;;;;7.43;5.45;;;10.00;99.90;;;;;;5083083;28;20159;-64
2022/11/01 02:00:57;;;;;;;7.00;5.28;;;9.90;99.90;;;;;;5087981;28;20051;-66
2022/11/01 02:03:30;;;;;;;8.82;5.50;;;9.90;99.90;;;;;;5090662;28;20120;-65
2022/11/01 02:06:06;;;;;;;5.65;4.57;;;9.90;99.90;;;;;;5081508;28;20555;-74
2022/11/01 02:08:35;;;;;;;7.95;4.30;;;9.90;99.90;;;;;;5081744;28;20086;-65
2022/11/01 02:11:04;;;;;;;6.95;4.80;;;9.90;99.90;;;;;;5082365;28;20046;-65
2022/11/01 02:13:31;;;;;;;6.80;4.68;;;9.90;99.90;;;;;;5081265;28;20138;-66
2022/11/01 02:16:04;;;;;;;6.68;4.68;;;9.90;99.90;;;;;;5081772;28;20055;-72
2022/11/01 02:18:55;;;;;;;6.20;4.20;;;9.80;99.90;;;;;;5088162;28;20052;-67
2022/11/01 02:21:44;;;;;;;7.60;4.97;;;9.80;99.90;;;;;;5086720;28;20035;-68
2022/11/01 02:24:11;;;;;;;5.18;4.68;;;9.70;99.90;;;;;;5063257;28;20509;-67
2022/11/01 02:26:54;;;;;;;5.97;4.45;;;9.70;99.90;;;;;;5062416;28;20049;-69
2022/11/01 02:29:29;;;;;;;6.15;4.10;;;9.70;99.90;;;;;;5057409;28;20488;-71
2022/11/01 02:32:37;;;;;;;6.40;4.18;;;9.70;99.90;;;;;;5056257;28;20040;-72
2022/11/01 02:35:42;;;;;;;3.97;3.60;;;9.70;99.90;;;;;;5054404;28;20071;-66
2022/11/01 02:38:22;;;;;;;6.70;4.57;;;9.70;99.90;;;;;;5063646;28;20443;-66
2022/11/01 02:41:12;;;;;;;7.38;5.03;;;9.70;99.90;;;;;;5056532;28;20552;-72
2022/11/01 02:43:49;;;;;;;5.40;4.07;;;9.70;99.90;;;;;;5058412;28;20106;-67
2022/11/01 02:49:05;;;;;;;5.90;4.85;;;9.70;99.90;;;;;;5060081;28;20048;-69
2022/11/01 02:51:34;;;;;;;8.38;4.38;;;9.70;99.90;;;;;;5069122;28;20062;-64
2022/11/01 02:54:12;;;;;;;5.25;4.70;;;9.70;99.90;;;;;;5066650;28;20056;-70
2022/11/01 02:56:39;;;;;;;5.72;4.43;;;9.70;99.90;;;;;;5067019;28;20596;-65
2022/11/01 02:59:16;;;;;;;6.43;4.18;;;9.70;99.90;;;;;;5060319;28;20503;-64
2022/11/01 03:01:59;;;;;;;4.63;3.80;;;9.70;99.90;;;;;;5057922;28;20441;-69
2022/11/01 03:04:26;;;;;;;5.00;3.58;;;9.70;99.90;;;;;;5043747;28;20527;-68
2022/11/01 03:06:59;;;;;;;3.25;2.92;;;9.80;99.90;;;;;;5071101;28;20142;-67
2022/11/01 03:09:27;;;;;;;5.10;4.10;;;9.70;99.90;;;;;;5067406;28;20165;-72
2022/11/01 03:12:07;;;;;;;5.45;3.38;;;9.80;99.90;;;;;;5066958;28;20062;-72
2022/11/01 03:14:42;;;;;;;7.30;3.85;;;9.80;99.90;;;;;;5067972;28;20055;-68
2022/11/01 03:17:31;;;;;;;4.72;3.92;;;9.80;99.90;;;;;;5067060;28;20062;-65
2022/11/01 03:20:09;;;;;;;9.27;5.15;;;9.80;99.90;;;;;;5063273;28;20371;-74
2022/11/01 03:22:53;;;;;;;12.10;5.85;;;9.80;99.90;;;;;;5067884;28;20143;-65
2022/11/01 03:25:43;;;;;;;10.20;4.78;;;9.80;99.90;;;;;;5062130;28;20052;-68
2022/11/01 03:28:30;;;;;;;11.30;6.03;;;9.90;99.90;;;;;;5049434;28;20047;-72
2022/11/01 03:31:10;;;;;;;13.52;6.10;;;9.90;99.90;;;;;;5063116;28;20068;-70
2022/11/01 03:33:42;;;;;;;22.05;7.38;;;9.90;99.90;;;;;;5062598;28;20529;-73
2022/11/01 03:36:13;;;;;;;11.65;7.72;;;9.90;99.90;;;;;;5061892;28;20090;-66
2022/11/01 03:38:45;;;;;;;13.82;8.05;;;9.90;99.90;;;;;;5046995;28;20050;-70
2022/11/01 03:41:15;;;;;;;11.32;7.50;;;10.00;99.90;;;;;;5056867;28;20074;-68
2022/11/01 03:43:42;;;;;;;12.93;7.13;;;10.00;99.90;;;;;;5064712;28;20040;-74
2022/11/01 03:46:09;;;;;;;13.00;7.32;;;10.00;99.90;;;;;;5061982;28;20048;-69
2022/11/01 03:48:40;;;;;;;10.70;7.57;;;10.00;99.90;;;;;;5064670;28;20075;-64
2022/11/01 03:51:07;;;;;;;9.73;6.47;;;9.90;99.90;;;;;;5062983;28;20116;-68
2022/11/01 03:53:34;;;;;;;8.45;6.15;;;9.90;99.90;;;;;;5065458;28;20047;-67
2022/11/01 03:56:01;;;;;;;8.07;5.65;;;9.80;99.90;;;;;;5062038;28;20063;-68
2022/11/01 03:58:40;;;;;;;14.32;7.85;;;9.80;99.90;;;;;;5062876;28;20059;-72
2022/11/01 04:01:08;;;;;;;8.55;5.78;;;9.80;99.90;;;;;;5061003;28;20138;-65
2022/11/01 04:03:36;;;;;;;10.70;6.75;;;9.70;99.90;;;;;;5062251;28;20155;-66
2022/11/01 04:06:04;;;;;;;8.55;7.32;;;9.80;99.90;;;;;;5060237;28;20052;-65
2022/11/01 04:08:31;;;;;;;12.15;8.68;;;9.80;99.90;;;;;;5068898;28;20059;-69
2022/11/01 04:10:58;;;;;;;10.48;8.02;;;9.90;99.90;;;;;;5067886;28;20048;-72
2022/11/01 04:13:25;;;;;;;11.27;7.10;;;9.90;99.90;;;;;;5068466;28;20457;-64
2022/11/01 04:21:25;;;;;;;11.43;7.57;;;9.90;99.90;;;;;;5069019;28;20059;-67
2022/11/01 04:23:52;;;;;;;9.82;7.97;;;9.90;99.90;;;;;;5059719;28;20088;-71
2022/11/01 04:26:21;;;;;;;13.55;9.23;;;9.90;99.90;;;;;;5070780;28;20047;-68
2022/11/01 04:28:58;;;;;;;17.83;9.93;;;9.90;99.90;;;;;;5071299;28;20062;-69
2022/11/01 04:31:27;;;;;;;14.40;8.57;;;9.90;99.90;;;;;;5072783;28;20055;-67
2022/11/01 04:33:56;;;;;;;36.42;9.43;;;10.00;99.90;;;;;;5070670;28;20430;-67
2022/11/01 04:36:23;;;;;;;39.97;9.88;;;10.00;99.90;;;;;;5073927;28;20036;-69
2022/11/01 04:38:55;;;;;;;45.05;8.70;;;10.00;99.90;;;;;;5072596;28;20454;-70
2022/11/01 04:41:24;;;;;;;12.85;8.35;;;10.00;99.90;;;;;;5071212;28;20151;-67
2022/11/01 04:43:53;;;;;;;14.93;8.02;;;10.10;99.90;;;;;;5069149;28;20090;-71
2022/11/01 04:46:20;;;;;;;37.22;9.93;;;10.00;99.90;;;;;;5072630;28;20144;-72
2022/11/01 04:48:47;;;;;;;23.13;8.75;;;10.10;99.90;;;;;;5071378;28;20052;-64
2022/11/01 04:51:14;;;;;;;70.22;12.32;;;10.10;99.90;;;;;;5072328;28;20175;-65
2022/11/01 04:53:41;;;;;;;33.03;8.90;;;10.10;99.90;;;;;;5070361;28;20614;-67
2022/11/01 04:56:10;;;;;;;16.77;8.52;;;10.10;99.90;;;;;;5069848;28;20556;-68
2022/11/01 04:58:37;;;;;;;14.27;7.80;;;10.10;99.90;;;;;;5072172;28;20040;-65
2022/11/01 05:01:13;;;;;;;12.93;9.07;;;10.00;99.90;;;;;;5074103;28;20048;-65
2022/11/01 05:03:40;;;;;;;46.85;10.70;;;10.00;99.90;;;;;;5071428;28;20044;-72
2022/11/01 05:06:08;;;;;;;60.95;9.95;;;10.00;99.90;;;;;;5069030;28;20051;-66
2022/11/01 05:08:35;;;;;;;40.40;10.30;;;10.00;99.90;;;;;;5069281;28;20056;-65
2022/11/01 05:11:02;;;;;;;40.33;8.93;;;10.00;99.90;;;;;;5061047;28;21127;-69
2022/11/01 05:13:29;;;;;;;19.10;6.80;;;10.00;99.90;;;;;;5072348;28;20531;-64
2022/11/01 05:15:56;;;;;;;55.83;9.55;;;10.00;99.90;;;;;;5071099;28;20041;-68
2022/11/01 05:18:43;;;;;;;45.72;8.10;;;10.00;99.90;;;;;;5054164;28;20126;-69
2022/11/01 05:21:10;;;;;;;8.98;5.85;;;9.90;99.90;;;;;;5071711;28;20492;-67
2022/11/01 05:23:37;;;;;;;8.45;5.65;;;9.90;99.90;;;;;;5072471;28;20052;-70
2022/11/01 05:26:04;;;;;;;19.50;8.30;;;9.90;99.90;;;;;;5067988;28;20049;-65
2022/11/01 05:28:31;;;;;;;37.65;8.68;;;9.90;99.90;;;;;;5073662;28;20410;-65
2022/11/01 05:30:58;;;;;;;11.23;6.80;;;9.90;99.90;;;;;;5072010;28;20508;-74
2022/11/01 05:33:25;;;;;;;43.58;8.88;;;9.90;99.90;;;;;;5071278;28;21027;-65
2022/11/01 05:35:52;;;;;;;22.67;7.90;;;9.90;99.90;;;;;;5070483;28;21073;-64
2022/11/01 05:38:19;;;;;;;15.13;6.90;;;9.90;99.90;;;;;;5072567;28;20048;-71
2022/11/01 05:40:46;;;;;;;8.20;6.00;;;9.90;99.90;;;;;;5069194;28;20482;-71
2022/11/01 05:43:13;;;;;;;13.20;6.93;;;9.90;99.90;;;;;;5070307;28;20045;-69
2022/11/01 05:45:40;;;;;;;10.60;6.15;;;9.90;99.90;;;;;;5071535;28;20496;-74
2022/11/01 05:48:07;;;;;;;22.90;7.07;;;9.90;99.90;;;;;;5069193;28;20044;-65
2022/11/01 05:50:34;;;;;;;9.30;6.38;;;9.80;99.90;;;;;;5070472;28;20101;-64
2022/11/01 05:53:08;;;;;;;15.05;7.90;;;9.80;99.90;;;;;;5069881;28;20059;-69
2022/11/01 05:55:36;;;;;;;16.35;7.68;;;9.80;99.90;;;;;;5071487;28;20045;-67
2022/11/01 05:58:03;;;;;;;14.18;6.82;;;9.80;99.90;;;;;;5071365;28;20045;-68
2022/11/01 06:00:31;;;;;;;21.10;7.80;;;9.80;99.90;;;;;;5070883;28;20072;-77
2022/11/01 06:02:59;;;;;;;15.60;6.72;;;9.80;99.90;;;;;;5071850;28;20053;-73
2022/11/01 06:05:28;;;;;;;28.73;8.15;;;9.80;99.90;;;;;;5070778;28;20495;-67
2022/11/01 06:07:55;;;;;;;23.40;6.43;;;9.80;99.90;;;;;;5067799;28;20182;-67
2022/11/01 06:10:22;;;;;;;44.83;9.20;;;9.80;99.90;;;;;;5071456;28;20131;-66
2022/11/01 06:12:49;;;;;;;11.50;5.78;;;9.70;99.90;;;;;;5071546;28;20470;-67
2022/11/01 06:15:16;;;;;;;26.27;8.52;;;9.70;99.90;;;;;;5071272;28;20044;-66
2022/11/01 06:17:43;;;;;;;48.92;8.95;;;9.70;99.90;;;;;;5071646;28;20082;-69
2022/11/01 06:20:11;;;;;;;17.17;7.35;;;9.80;99.90;;;;;;5067772;28;20228;-69
2022/11/01 06:22:38;;;;;;;12.32;6.97;;;9.80;99.90;;;;;;5072865;28;20362;-68
2022/11/01 06:25:05;;;;;;;18.73;7.85;;;9.80;99.90;;;;;;5085123;28;20071;-63
2022/11/01 06:27:32;;;;;;;14.85;6.97;;;9.80;99.90;;;;;;5086775;28;20150;-63
2022/11/01 06:29:59;;;;;;;52.40;10.02;;;9.80;99.90;;;;;;5076296;28;20131;-68
2022/11/01 06:32:26;;;;;;;35.47;8.77;;;9.80;99.90;;;;;;5086526;28;20058;-66
2022/11/01 06:34:53;;;;;;;16.35;8.32;;;9.80;99.90;;;;;;5079725;28;20043;-72
2022/11/01 06:37:20;;;;;;;37.13;9.73;;;9.80;99.90;;;;;;5079651;28;20050;-70
2022/11/01 06:39:47;;;;;;;12.13;8.18;;;9.80;99.90;;;;;;5085044;28;20668;-64
2022/11/01 06:42:14;;;;;;;11.73;7.57;;;9.90;99.90;;;;;;5077587;28;20058;-67
2022/11/01 06:44:41;;;;;;;11.32;7.70;;;9.90;99.90;;;;;;5087880;28;20078;-68
2022/11/01 06:47:07;;;;;;;52.90;10.20;;;9.90;99.90;;;;;;5077831;28;20493;-70
2022/11/01 06:49:34;;;;;;;31.85;7.07;;;9.90;99.90;;;;;;5078378;28;20078;-73
2022/11/01 06:52:02;;;;;;;28.10;6.30;;;9.90;99.90;;;;;;5064656;28;20515;-71
2022/11/01 06:54:29;;;;;;;40.13;7.97;;;9.90;99.90;;;;;;5076787;28;20086;-64
2022/11/01 06:56:56;;;;;;;35.75;6.82;;;9.90;99.90;;;;;;5074062;28;20147;-73
2022/11/01 06:59:23;;;;;;;31.42;7.60;;;9.80;99.90;;;;;;5069585;28;20115;-64
2022/11/01 07:01:54;;;;;;;7.50;5.57;;;9.80;99.90;;;;;;5081689;28;20638;-65
2022/11/01 07:04:21;;;;;;;;;;;9.80;99.90;;;;;;5071555;28;20059;-73
2022/11/01 07:06:48;;;;;;;7.95;5.57;;;9.80;99.90;;;;;;5068477;28;19931;-67
2022/11/01 07:09:15;;;;;;;31.80;7.47;;;9.90;99.90;;;;;;5075255;28;20062;-68
2022/11/01 07:11:41;;;;;;;15.80;5.78;;;9.90;99.90;;;;;;5073644;28;20041;-68
2022/11/01 07:14:08;;;;;;;8.10;6.10;;;9.90;99.90;;;;;;5064849;28;20401;-65
2022/11/01 07:16:37;;;;;;;10.75;6.22;;;10.00;99.90;;;;;;5074020;28;20408;-66
2022/11/01 07:19:04;;;;;;;46.33;6.93;;;9.90;99.90;;;;;;5081676;28;20459;-66
2022/11/01 07:21:31;;;;;;;5.07;4.35;;;9.90;99.90;;;;;;5075131;28;20168;-67
2022/11/01 07:23:58;;;;;;;23.45;5.70;;;9.90;99.90;;;;;;5084841;28;20575;-77
2022/11/01 07:26:25;;;;;;;8.32;4.57;;;9.90;99.90;;;;;;5074786;28;20044;-68
2022/11/01 07:28:52;;;;;;;22.00;4.82;;;9.80;99.90;;;;;;5065425;28;20051;-74
2022/11/01 07:31:19;;;;;;;24.85;5.63;;;9.80;99.90;;;;;;5077031;28;20048;-64
2022/11/01 07:33:46;;;;;;;13.32;4.82;;;9.80;99.90;;;;;;5080060;28;20047;-66
2022/11/01 07:36:12;;;;;;;6.30;5.38;;;9.80;99.90;;;;;;5080372;28;20048;-67
2022/11/01 07:38:39;;;;;;;24.92;6.78;;;9.70;99.90;;;;;;5081688;28;20318;-69
2022/11/01 07:41:06;;;;;;;7.47;5.60;;;9.70;99.90;;;;;;5081276;28;20058;-69
2022/11/01 07:43:34;;;;;;;7.20;5.00;;;9.70;99.90;;;;;;5080414;28;20128;-75
2022/11/01 07:46:04;;;;;;;12.73;6.75;;;9.80;99.90;;;;;;5078581;28;20052;-67
2022/11/01 07:48:32;;;;;;;7.65;5.75;;;9.80;99.90;;;;;;5079955;28;21471;-69
2022/11/01 07:50:59;;;;;;;7.82;6.03;;;9.80;99.90;;;;;;5081797;28;20105;-67
2022/11/01 07:53:26;;;;;;;12.57;5.72;;;9.90;99.90;;;;;;5080562;28;20058;-66
2022/11/01 07:55:52;;;;;;;8.27;5.63;;;9.80;99.90;;;;;;5078280;28;20052;-72
2022/11/01 07:58:19;;;;;;;7.15;5.15;;;9.90;99.90;;;;;;5081310;28;20604;-64
2022/11/01 08:00:46;;;;;;;6.85;5.60;;;9.90;99.90;;;;;;5080835;28;20475;-74
2022/11/01 08:03:16;;;;;;;16.20;4.60;;;9.90;99.90;;;;;;5083099;28;20063;-64
2022/11/01 08:05:44;;;;;;;7.43;4.75;;;9.80;99.90;;;;;;5062785;28;20047;-71
2022/11/01 08:08:12;;;;;;;17.67;5.28;;;9.80;99.90;;;;;;5079658;28;20047;-69
2022/11/01 08:10:39;;;;;;;22.48;5.60;;;9.80;99.90;;;;;;5077883;28;20050;-72
2022/11/01 08:13:13;;;;;;;5.65;5.00;;;9.80;99.90;;;;;;5078701;28;20097;-67
2022/11/01 08:15:40;;;;;;;8.45;4.55;;;9.80;99.90;;;;;;5080413;28;20048;-65
2022/11/01 08:18:06;;;;;;;15.95;5.05;;;9.80;99.90;;;;;;5077753;28;20421;-69
2022/11/01 08:20:33;;;;;;;11.98;3.95;;;9.90;99.90;;;;;;5080233;28;20741;-64
2022/11/01 08:23:00;;;;;;;16.30;5.50;;;9.90;99.90;;;;;;5079800;28;20147;-68
2022/11/01 08:25:29;;;;;;;11.63;3.53;;;10.00;99.90;;;;;;5080337;28;20066;-67
2022/11/01 08:28:01;;;;;;;13.00;3.30;;;10.00;99.90;;;;;;5078201;28;20048;-67
2022/11/01 08:30:29;;;;;;;3.65;2.45;;;9.90;99.90;;;;;;5081400;28;20206;-69
2022/11/01 08:33:03;;;;;;;8.93;3.10;;;9.90;99.90;;;;;;5080017;28;20625;-73
2022/11/01 08:35:32;;;;;;;5.03;2.63;;;9.90;99.90;;;;;;5080435;28;20040;-69
2022/11/01 08:38:01;;;;;;;7.28;3.13;;;9.90;99.90;;;;;;5078576;28;20606;-63
2022/11/01 08:40:30;;;;;;;15.73;3.17;;;10.00;99.90;;;;;;5078551;28;20074;-67
2022/11/01 08:42:57;;;;;;;7.68;3.00;;;10.00;99.90;;;;;;5079357;28;20048;-64
2022/11/01 08:45:24;;;;;;;4.65;3.38;;;10.00;99.90;;;;;;5080528;28;20498;-70
2022/11/01 08:48:03;;;;;;;4.05;2.63;;;10.10;99.90;;;;;;5079950;28;20134;-71
2022/11/01 08:50:35;;;;;;;4.70;3.03;;;10.10;99.90;;;;;;5081170;28;20040;-66
2022/11/01 08:53:09;;;;;;;3.83;2.90;;;10.10;99.90;;;;;;5080497;28;20167;-70
2022/11/01 08:55:37;;;;;;;5.35;3.88;;;10.20;99.90;;;;;;5082393;28;20490;-72
2022/11/01 08:58:05;;;;;;;5.22;3.90;;;10.20;99.90;;;;;;5083525;28;20047;-71
2022/11/01 09:00:33;;;;;;;3.78;3.13;;;10.20;99.90;;;;;;5083629;28;20047;-65
2022/11/01 09:03:00;;;;;;;5.82;3.17;;;10.20;99.90;;;;;;5083651;28;20132;-66
2022/11/01 09:05:30;;;;;;;5.10;3.65;;;10.30;99.90;;;;;;5080693;28;20399;-69
2022/11/01 09:07:58;;;;;;;6.70;5.32;;;10.40;99.90;;;;;;5080376;28;20051;-68
2022/11/01 09:10:25;;;;;;;4.88;3.28;;;10.40;99.90;;;;;;5083253;28;20350;-65
2022/11/01 09:12:52;;;;;;;3.90;3.03;;;10.50;99.90;;;;;;5084531;28;20143;-74
2022/11/01 09:15:19;;;;;;;3.58;3.28;;;10.50;99.90;;;;;;5083409;28;20109;-68
2022/11/01 09:17:46;;;;;;;3.80;3.40;;;10.60;99.90;;;;;;5079783;28;20055;-71
2022/11/01 09:20:14;;;;;;;4.18;3.38;;;10.60;99.90;;;;;;5081250;28;20050;-71
2022/11/01 09:22:41;;;;;;;4.78;3.92;;;10.60;99.90;;;;;;5082045;28;20060;-67
2022/11/01 09:25:08;;;;;;;5.78;3.42;;;10.60;99.90;;;;;;5081678;28;20052;-64
2022/11/01 09:27:35;;;;;;;3.47;2.90;;;10.70;99.90;;;;;;5082961;28;20050;-67
2022/11/01 09:30:03;;;;;;;7.53;3.10;;;10.70;99.90;;;;;;5075947;28;20109;-71
2022/11/01 09:32:30;;;;;;;7.10;3.25;;;10.70;99.90;;;;;;5084039;28;20056;-74
2022/11/01 09:34:57;;;;;;;3.92;2.70;;;10.80;99.90;;;;;;5082686;28;20130;-70
2022/11/01 09:37:24;;;;;;;9.55;3.85;;;10.80;99.90;;;;;;5081600;28;20174;-73
2022/11/01 09:39:51;;;;;;;9.48;3.05;;;10.80;99.90;;;;;;5080733;28;20052;-69
2022/11/01 09:42:34;;;;;;;4.10;3.45;;;10.80;99.90;;;;;;5080026;28;20248;-67
2022/11/01 09:45:08;;;;;;;9.68;3.35;;;10.80;99.90;;;;;;5079843;28;20144;-67
2022/11/01 09:47:36;;;;;;;6.18;3.50;;;10.90;99.90;;;;;;5081297;28;20076;-77
2022/11/01 09:50:13;;;;;;;3.47;3.20;;;10.90;99.90;;;;;;5080501;28;20450;-71
2022/11/01 09:52:40;;;;;;;9.18;3.00;;;10.80;99.90;;;;;;5080440;28;20159;-70
2022/11/01 09:55:13;;;;;;;12.30;4.20;;;10.90;99.90;;;;;;5082144;28;20378;-64
2022/11/01 09:57:47;;;;;;;5.22;4.35;;;10.90;99.90;;;;;;5081241;28;20476;-65
2022/11/01 10:00:20;;;;;;;4.85;3.42;;;10.90;99.90;;;;;;5076722;28;21040;-68
2022/11/01 10:03:01;;;;;;;7.80;5.13;;;10.90;99.90;;;;;;5081153;28;20486;-75
2022/11/01 10:05:37;;;;;;;;;;;11.00;99.90;;;;;;5080939;28;20479;-70
2022/11/01 10:08:25;;;;;;;6.03;3.38;;;11.00;99.90;;;;;;5074402;28;20019;-66
2022/11/01 10:11:36;;;;;;;9.77;3.40;;;11.10;99.90;;;;;;5082549;28;20121;-70
2022/11/01 10:14:17;;;;;;;6.28;3.63;;;11.20;99.90;;;;;;5073792;28;20063;-67
2022/11/01 10:17:13;;;;;;;4.55;3.25;;;11.20;99.90;;;;;;5079255;28;20051;-71
2022/11/01 10:19:45;;;;;;;4.82;3.75;;;11.20;99.90;;;;;;5083847;28;20473;-70
2022/11/01 10:22:29;;;;;;;3.47;2.65;;;11.20;99.90;;;;;;5079743;28;20395;-70
2022/11/01 10:25:08;;;;;;;8.50;4.13;;;11.20;99.90;;;;;;5080465;28;20040;-68
2022/11/01 10:27:54;;;;;;;7.82;4.57;;;11.30;99.90;;;;;;5080107;28;20147;-73
2022/11/01 10:30:21;;;;;;;7.18;3.35;;;11.40;99.90;;;;;;5078200;28;20772;-67
2022/11/01 10:33:00;;;;;;;6.70;3.78;;;11.40;99.90;;;;;;5081221;28;20392;-72
2022/11/01 10:35:35;;;;;;;11.13;3.55;;;11.40;99.90;;;;;;5079653;28;20044;-72
2022/11/01 10:38:26;;;;;;;4.60;3.90;;;11.40;99.90;;;;;;5082965;28;20047;-73
2022/11/01 10:41:28;;;;;;;6.47;4.72;;;11.40;99.90;;;;;;5067060;28;20072;-70
2022/11/01 10:43:59;;;;;;;10.57;5.80;;;11.40;99.90;;;;;;5080121;28;20047;-72
2022/11/01 10:46:31;;;;;;;5.00;4.43;;;11.40;99.90;;;;;;5071581;28;20131;-67
2022/11/01 10:49:15;;;;;;;10.25;4.38;;;11.50;99.90;;;;;;5071567;28;20488;-69
2022/11/01 10:51:43;;;;;;;5.55;5.03;;;11.40;99.90;;;;;;5073836;28;20722;-66
2022/11/01 10:54:19;;;;;;;4.75;4.05;;;11.40;99.90;;;;;;5074297;28;20054;-70
2022/11/01 10:56:49;;;;;;;5.35;4.28;;;11.40;99.90;;;;;;5067225;28;20132;-68
2022/11/01 10:59:18;;;;;;;9.00;5.40;;;11.40;99.90;;;;;;5065235;28;20052;-70
2022/11/01 11:01:49;;;;;;;8.45;5.00;;;11.40;99.90;;;;;;5084012;28;20146;-68
2022/11/01 11:04:20;;;;;;;9.32;4.38;;;11.30;99.90;;;;;;5076351;28;20413;-72
2022/11/01 11:06:47;;;;;;;5.75;4.10;;;11.30;99.90;;;;;;5084504;28;20553;-69
2022/11/01 11:09:21;;;;;;;4.00;3.60;;;11.30;99.90;;;;;;5083542;28;20055;-72
2022/11/01 11:11:49;;;;;;;4.57;4.10;;;11.30;99.90;;;;;;5067986;28;20462;-64
2022/11/01 11:14:19;;;;;;;4.57;4.00;;;11.30;99.90;;;;;;5063740;28;20133;-67
2022/11/01 11:16:51;;;;;;;7.20;4.63;;;11.20;99.90;;;;;;5073508;28;20056;-71
2022/11/01 11:19:29;;;;;;;6.63;5.18;;;11.30;99.90;;;;;;5079850;28;20149;-66
2022/11/01 11:21:57;;;;;;;5.07;4.55;;;11.20;99.90;;;;;;5076430;28;20513;-72
2022/11/01 11:24:29;;;;;;;6.43;4.82;;;11.20;99.90;;;;;;5080079;28;20130;-66
2022/11/01 11:26:57;;;;;;;5.40;4.90;;;11.20;99.90;;;;;;5078658;28;20497;-70
2022/11/01 11:29:38;;;;;;;4.88;4.40;;;11.20;99.90;;;;;;5081030;28;20047;-70
2022/11/01 11:32:15;;;;;;;6.80;5.53;;;11.20;99.90;;;;;;5077602;28;20052;-65
2022/11/01 11:34:42;;;;;;;5.75;5.15;;;11.20;99.90;;;;;;5080063;28;20624;-71
2022/11/01 11:37:20;;;;;;;6.45;5.03;;;11.10;99.90;;;;;;5078471;28;20102;-65
2022/11/01 11:40:15;;;;;;;5.47;4.80;;;11.20;99.90;;;;;;5080650;28;20140;-67
2022/11/01 11:42:44;;;;;;;8.70;6.10;;;11.10;99.90;;;;;;5071382;28;20062;-66
2022/11/01 11:45:22;;;;;;;8.73;6.35;;;11.10;99.90;;;;;;5078982;28;20044;-65
2022/11/01 11:47:50;;;;;;;6.70;6.03;;;11.10;99.90;;;;;;5079242;28;20067;-66
2022/11/01 11:50:20;;;;;;;5.47;4.93;;;11.10;99.90;;;;;;5080089;28;20116;-64
2022/11/01 11:52:50;;;;;;;7.07;5.97;;;11.10;99.90;;;;;;5083639;28;20044;-66
2022/11/01 11:55:39;;;;;;;5.78;5.18;;;11.10;99.90;;;;;;5079280;28;20162;-72
2022/11/01 11:58:26;;;;;;;6.93;5.28;;;11.10;99.90;;;;;;5073776;28;20196;-71
2022/11/01 12:01:06;;;;;;;6.68;4.53;;;11.00;99.90;;;;;;5083576;28;20066;-75
2022/11/01 12:03:43;;;;;;;6.22;4.82;;;10.90;99.90;;;;;;5084582;28;20055;-66
2022/11/01 12:06:18;;;;;;;9.77;4.95;;;10.90;99.90;;;;;;5075272;28;20056;-66
2022/11/01 12:08:56;;;;;;;3.83;3.35;;;10.80;99.90;;;;;;5075422;28;20792;-69
2022/11/01 12:11:24;;;;;;;5.07;3.20;;;10.70;99.90;;;;;;5078663;28;20043;-68
2022/11/01 12:14:03;;;;;;;6.72;4.32;;;10.70;99.90;;;;;;5081967;28;21166;-68
2022/11/01 12:16:40;;;;;;;7.30;3.35;;;10.70;99.90;;;;;;5070913;28;20526;-68
2022/11/01 12:19:26;;;;;;;5.38;3.60;;;10.70;99.90;;;;;;5078671;28;20044;-71
2022/11/01 12:21:54;;;;;;;5.15;2.95;;;10.60;99.90;;;;;;5078185;28;20477;-64
2022/11/01 12:24:45;;;;;;;4.45;2.80;;;10.60;99.90;;;;;;5078170;28;20067;-71
2022/11/01 12:27:21;;;;;;;3.90;3.47;;;10.60;99.90;;;;;;5077391;28;20056;-73
2022/11/01 12:30:04;;;;;;;3.75;3.08;;;10.60;99.90;;;;;;5083379;28;20094;-65
2022/11/01 12:32:46;;;;;;;4.07;2.92;;;10.50;99.90;;;;;;5083294;28;20054;-71
2022/11/01 12:35:20;;;;;;;4.38;2.75;;;10.50;99.90;;;;;;5082821;28;20071;-66
2022/11/01 12:38:16;;;;;;;3.30;3.00;;;10.40;99.90;;;;;;5067682;28;20443;-75
2022/11/01 12:40:44;;;;;;;3.38;2.90;;;10.50;99.90;;;;;;5087292;28;20350;-67
2022/11/01 12:43:20;;;;;;;4.03;2.90;;;10.50;99.90;;;;;;5079548;28;20056;-71
2022/11/01 12:46:01;;;;;;;2.83;2.55;;;10.50;99.90;;;;;;5072910;28;20048;-65
2022/11/01 12:48:56;;;;;;;3.58;3.00;;;10.50;99.90;;;;;;5066350;28;20985;-66
2022/11/01 12:51:31;;;;;;;3.67;3.20;;;10.40;99.90;;;;;;5080672;28;20504;-74
2022/11/01 12:54:28;;;;;;;6.97;3.10;;;10.30;99.90;;;;;;5067572;28;20040;-77
2022/11/01 12:56:55;;;;;;;3.88;2.92;;;10.40;99.90;;;;;;5063110;28;20131;-71
2022/11/01 12:59:36;;;;;;;3.67;3.33;;;10.40;99.90;;;;;;5083395;28;20434;-65
2022/11/01 13:02:22;;;;;;;4.38;3.50;;;10.40;99.90;;;;;;5080097;28;20052;-70
2022/11/01 13:05:00;;;;;;;4.80;3.95;;;10.40;99.90;;;;;;5081541;28;20113;-70
2022/11/01 13:07:48;;;;;;;6.28;4.22;;;10.40;99.90;;;;;;5082295;28;20071;-68
2022/11/01 13:10:24;;;;;;;6.82;4.70;;;10.50;99.90;;;;;;5069643;28;20059;-73
2022/11/01 13:13:00;;;;;;;5.90;4.75;;;10.40;99.90;;;;;;5077270;28;20036;-68
2022/11/01 13:15:39;;;;;;;8.00;5.82;;;10.40;99.90;;;;;;5066509;28;20405;-65
2022/11/01 13:18:33;;;;;;;8.13;6.70;;;10.40;99.90;;;;;;5073159;28;20117;-71
2022/11/01 13:21:08;;;;;;;10.05;6.55;;;10.40;99.90;;;;;;5069510;28;21156;-71